Hillsboro, Mississippi
Current Conditions -  °F | °C
As of 10:54 PM on Wednesday 22 Oct 2014 (Local Time) from KJAN Reporting Station
Clear Clear  
Wind Chill: 56°   Ceiling: Unl
Heat Index: 56°   Visibility: 10mi
Dew Point: 46°   Wind: 6mph
Humidity: 69%   Direction: 50°NE
Pressure: 30.14"   Gusts: NA
Location:  32.46°N, 89.51°W
Report Text: KJAN 230354Z 05005KT 10SM CLR 13/08 A3014 RMK AO2 SLP204 LAST AUGMENTED OBSERVATION UNTIL 1100Z T01330078
Loading
Personal Weather Stations






























Interactive Weather Map
Tropical Storm Tracking
New forecast layout! Learn more

10-Day Weather Forecast

Advertisements
Track Severe Weather on mobile